Time;durP1;ratioP1;P1;durP2;ratioP2;P2;SDS_P1;SDS_P2;PMS_P1;PMS_P2;Temp;Humidity;BMP_temperature;BMP_pressure;BME280_temperature;BME280_humidity;BME280_pressure;Samples;Min_cycle;Max_cycle;Signal;HPM_P1;HPM_P2
2024/01/14 00:00:51;;;;;;;21.48;14.32;;;;;;;14.97;49.88;101689.56;4946252;29;20079;-33
2024/01/14 00:03:18;;;;;;;20.00;13.52;;;;;;;14.95;50.11;101679.94;4942714;29;20048;-36
2024/01/14 00:05:45;;;;;;;20.40;13.90;;;;;;;14.95;49.63;101686.13;4942994;29;20055;-34
2024/01/14 00:08:11;;;;;;;18.35;12.65;;;;;;;14.95;49.53;101678.13;4944268;29;20059;-36
2024/01/14 00:10:38;;;;;;;19.38;13.25;;;;;;;14.94;49.78;101676.44;4943480;29;20047;-34
2024/01/14 00:13:05;;;;;;;17.92;12.10;;;;;;;14.94;49.12;101676.44;4943133;29;20351;-35
2024/01/14 00:15:31;;;;;;;18.23;12.52;;;;;;;14.93;49.10;101668.56;4944411;28;20533;-34
2024/01/14 00:17:58;;;;;;;18.73;12.85;;;;;;;14.93;49.13;101666.72;4947376;29;20048;-33
2024/01/14 00:20:25;;;;;;;19.85;12.93;;;;;;;14.93;49.38;101663.22;4946600;29;20351;-35
2024/01/14 00:22:51;;;;;;;17.75;12.82;;;;;;;14.91;49.73;101663.31;4946081;29;20468;-34
2024/01/14 00:25:19;;;;;;;16.98;11.27;;;;;;;14.91;49.28;101660.63;4943715;29;20055;-34
2024/01/14 00:27:45;;;;;;;17.42;11.63;;;;;;;14.90;49.36;101661.59;4944709;28;20316;-35
2024/01/14 00:30:12;;;;;;;19.17;12.88;;;;;;;14.90;50.01;101666.94;4946278;29;20154;-34
2024/01/14 00:32:39;;;;;;;17.70;12.07;;;;;;;14.89;49.92;101661.72;4945359;29;20142;-35
2024/01/14 00:35:05;;;;;;;16.65;11.50;;;;;;;14.88;49.74;101658.22;4947709;29;20055;-34
2024/01/14 00:37:32;;;;;;;19.80;12.85;;;;;;;14.88;49.94;101649.38;4943688;29;20047;-35
2024/01/14 00:39:58;;;;;;;17.60;11.43;;;;;;;14.87;49.24;101639.63;4945323;28;20440;-36
2024/01/14 00:42:25;;;;;;;16.80;12.02;;;;;;;14.85;49.88;101637.09;4944166;28;20055;-35
2024/01/14 00:44:52;;;;;;;18.60;12.15;;;;;;;14.85;49.36;101636.25;4942400;29;20360;-33
2024/01/14 00:47:19;;;;;;;18.92;12.18;;;;;;;14.82;49.93;101627.47;4943224;29;20048;-34
2024/01/14 00:49:45;;;;;;;18.13;12.75;;;;;;;14.82;49.39;101626.63;4943133;29;20758;-35
2024/01/14 00:52:12;;;;;;;17.08;12.10;;;;;;;14.82;49.49;101630.16;4944934;29;20051;-35
2024/01/14 00:54:38;;;;;;;17.77;12.52;;;;;;;14.86;49.23;101621.91;4941767;28;20110;-34
2024/01/14 00:57:07;;;;;;;15.70;11.35;;;;;;;14.95;49.07;101623.91;4940814;29;20560;-35
2024/01/14 00:59:34;;;;;;;18.77;11.85;;;;;;;15.09;49.85;101629.06;4947354;29;20047;-34
2024/01/14 01:02:00;;;;;;;16.67;12.02;;;;;;;15.23;48.83;101626.19;4943898;28;20067;-34
2024/01/14 01:04:27;;;;;;;15.38;10.75;;;;;;;15.38;48.44;101620.66;4940549;29;20443;-34
2024/01/14 01:06:54;;;;;;;16.02;10.82;;;;;;;15.49;47.95;101620.69;4942681;29;20151;-34
2024/01/14 01:09:21;;;;;;;15.52;10.85;;;;;;;15.58;48.56;101614.63;4942339;29;20071;-36
2024/01/14 01:11:47;;;;;;;14.95;10.23;;;;;;;15.68;48.61;101607.66;4944179;29;20043;-34
2024/01/14 01:14:15;;;;;;;15.25;10.70;;;;;;;15.75;48.08;101598.16;4943513;28;20059;-34
2024/01/14 01:16:42;;;;;;;15.27;10.77;;;;;;;15.84;48.08;101595.75;4946527;29;20047;-35
2024/01/14 01:19:08;;;;;;;15.80;11.20;;;;;;;15.86;47.96;101602.69;4944932;28;20054;-34
2024/01/14 01:21:35;;;;;;;15.05;10.63;;;;;;;15.87;47.46;101598.19;4943398;28;20119;-34
2024/01/14 01:24:02;;;;;;;15.18;10.35;;;;;;;15.83;47.25;101604.75;4944105;29;20508;-35
2024/01/14 01:26:29;;;;;;;14.88;10.90;;;;;;;15.79;48.60;101598.78;4941590;29;20066;-34
2024/01/14 01:28:55;;;;;;;14.90;10.05;;;;;;;15.77;48.25;101598.06;4942506;29;20383;-34
2024/01/14 01:31:25;;;;;;;15.50;10.77;;;;;;;15.76;48.25;101586.53;4943087;29;20059;-35
2024/01/14 01:34:04;;;;;;;17.13;11.13;;;;;;;15.77;48.44;101582.88;4945357;29;20347;-35
2024/01/14 01:36:31;;;;;;;17.75;11.57;;;;;;;15.78;47.30;101583.72;4948713;29;20044;-34
2024/01/14 01:38:58;;;;;;;16.85;11.02;;;;;;;15.75;47.39;101582.13;4942599;29;20059;-36
2024/01/14 01:41:26;;;;;;;16.75;12.13;;;;;;;15.70;48.12;101576.31;4951387;28;20058;-34
2024/01/14 01:43:52;;;;;;;16.55;10.88;;;;;;;15.64;47.08;101576.75;4945147;28;20432;-35
2024/01/14 01:46:19;;;;;;;14.20;10.82;;;;;;;15.58;47.58;101565.69;4945026;28;20055;-34
2024/01/14 01:48:46;;;;;;;12.82;9.98;;;;;;;15.50;47.61;101574.31;4943214;28;20044;-35
2024/01/14 01:51:14;;;;;;;15.30;10.45;;;;;;;15.42;48.39;101563.38;4944429;29;20051;-35
2024/01/14 01:53:41;;;;;;;12.88;9.73;;;;;;;15.36;48.72;101561.19;4945319;28;20121;-34
2024/01/14 01:56:08;;;;;;;13.80;10.23;;;;;;;15.28;48.65;101559.94;4948651;29;20101;-36
2024/01/14 01:58:35;;;;;;;15.73;11.13;;;;;;;15.22;48.26;101568.41;4947549;28;20083;-33
2024/01/14 02:01:05;;;;;;;15.18;11.07;;;;;;;15.16;48.35;101571.56;4945551;28;20634;-34
2024/01/14 02:03:33;;;;;;;16.08;10.35;;;;;;;15.10;49.03;101569.34;4948010;29;20115;-34
2024/01/14 02:06:01;;;;;;;14.63;10.25;;;;;;;15.04;48.74;101573.34;4948856;29;20055;-35
2024/01/14 02:08:28;;;;;;;14.93;11.02;;;;;;;14.98;48.72;101567.63;4948818;28;20569;-34
2024/01/14 02:10:55;;;;;;;16.05;11.43;;;;;;;14.91;48.81;101564.53;4943978;29;20055;-33
2024/01/14 02:13:21;;;;;;;13.77;10.32;;;;;;;14.84;49.17;101566.00;4945226;29;20122;-35
2024/01/14 02:15:48;;;;;;;13.95;10.07;;;;;;;14.78;49.53;101556.63;4950043;29;20055;-34
2024/01/14 02:18:15;;;;;;;13.30;9.93;;;;;;;14.73;49.95;101560.59;4945457;29;20430;-35
2024/01/14 02:20:41;;;;;;;14.10;10.05;;;;;;;14.65;49.71;101550.50;4948056;29;20048;-35
2024/01/14 02:23:12;;;;;;;14.23;10.15;;;;;;;14.62;50.33;101555.22;4943806;29;20200;-35
2024/01/14 02:25:39;;;;;;;13.85;10.00;;;;;;;14.61;49.57;101558.84;4941136;29;20143;-34
2024/01/14 02:28:06;;;;;;;17.02;10.80;;;;;;;14.57;50.07;101556.41;4946906;29;20130;-34
2024/01/14 02:30:35;;;;;;;14.50;9.93;;;;;;;14.54;50.04;101556.63;4945631;29;20109;-33
2024/01/14 02:33:02;;;;;;;14.18;9.95;;;;;;;14.53;50.01;101552.25;4947602;28;20062;-36
2024/01/14 02:35:29;;;;;;;12.82;9.07;;;;;;;14.61;50.48;101545.50;4946038;29;20392;-33
2024/01/14 02:37:55;;;;;;;13.55;9.65;;;;;;;14.74;49.67;101548.97;4949439;29;20082;-34
2024/01/14 02:40:22;;;;;;;12.65;9.45;;;;;;;14.91;49.27;101547.69;4947847;29;20139;-33
2024/01/14 02:42:48;;;;;;;13.90;9.32;;;;;;;15.09;49.50;101546.31;4946053;29;20138;-34
2024/01/14 02:45:15;;;;;;;11.85;8.63;;;;;;;15.25;49.11;101554.00;4944135;29;20052;-34
2024/01/14 02:47:42;;;;;;;11.63;9.20;;;;;;;15.40;48.27;101535.94;4944110;29;20094;-36
2024/01/14 02:50:09;;;;;;;14.20;9.70;;;;;;;15.52;48.91;101535.81;4948423;29;20062;-35
2024/01/14 02:52:35;;;;;;;13.35;8.90;;;;;;;15.64;48.27;101526.00;4949045;29;20108;-35
2024/01/14 02:55:02;;;;;;;12.55;9.27;;;;;;;15.73;47.89;101519.09;4948221;29;20047;-35
2024/01/14 02:57:29;;;;;;;12.07;8.90;;;;;;;15.82;47.68;101522.84;4948634;29;20055;-35
2024/01/14 02:59:56;;;;;;;11.77;8.60;;;;;;;15.86;47.70;101513.63;4946087;29;20352;-35
2024/01/14 03:02:23;;;;;;;11.75;9.00;;;;;;;15.86;47.35;101510.94;4945384;28;20063;-34
2024/01/14 03:04:49;;;;;;;11.73;8.65;;;;;;;15.83;47.74;101512.03;4943458;28;20058;-35
2024/01/14 03:07:16;;;;;;;12.32;8.80;;;;;;;15.79;47.82;101500.72;4947305;29;20051;-35
2024/01/14 03:09:42;;;;;;;11.52;8.55;;;;;;;15.82;46.91;101498.78;4948159;28;20059;-34
2024/01/14 03:12:09;;;;;;;12.13;8.48;;;;;;;15.82;48.11;101496.13;4947499;28;20085;-34
2024/01/14 03:14:36;;;;;;;10.27;8.15;;;;;;;15.82;46.83;101493.44;4949073;29;20078;-34
2024/01/14 03:17:02;;;;;;;12.63;8.70;;;;;;;15.79;47.01;101484.69;4950428;28;20142;-33
2024/01/14 03:19:29;;;;;;;12.15;8.77;;;;;;;15.77;47.72;101485.81;4948441;29;20055;-34
2024/01/14 03:21:56;;;;;;;10.02;8.15;;;;;;;15.75;47.38;101488.59;4948878;29;20126;-34
2024/01/14 03:24:23;;;;;;;12.27;8.82;;;;;;;15.70;47.95;101480.09;4949538;28;20377;-35
2024/01/14 03:26:49;;;;;;;11.88;8.63;;;;;;;15.64;46.79;101475.22;4945415;29;20051;-34
2024/01/14 03:29:16;;;;;;;12.20;8.38;;;;;;;15.56;47.14;101483.00;4946594;28;20057;-34
2024/01/14 03:31:42;;;;;;;12.68;8.57;;;;;;;15.51;47.88;101474.47;4948535;29;20380;-34
2024/01/14 03:34:09;;;;;;;12.38;8.73;;;;;;;15.43;47.86;101468.88;4945637;29;20051;-34
2024/01/14 03:36:36;;;;;;;12.70;8.80;;;;;;;15.38;47.65;101468.41;4945418;28;20467;-34
2024/01/14 03:39:06;;;;;;;11.93;8.75;;;;;;;15.31;48.35;101462.69;4944963;28;20051;-34
2024/01/14 03:41:33;;;;;;;11.57;8.60;;;;;;;15.24;47.64;101459.69;4946666;29;20137;-34
2024/01/14 03:43:59;;;;;;;14.25;9.95;;;;;;;15.20;47.89;101468.91;4946223;28;20051;-35
2024/01/14 03:46:26;;;;;;;12.73;8.77;;;;;;;15.13;47.95;101465.00;4948738;29;20091;-33
2024/01/14 03:48:53;;;;;;;11.52;8.55;;;;;;;15.06;48.09;101458.44;4946317;29;20126;-34
2024/01/14 03:51:19;;;;;;;11.02;8.07;;;;;;;15.00;48.27;101461.59;4946333;29;20106;-34
2024/01/14 03:53:46;;;;;;;10.35;7.85;;;;;;;14.94;49.05;101459.38;4947857;29;20439;-34
2024/01/14 03:56:13;;;;;;;11.73;8.20;;;;;;;14.92;48.75;101453.31;4947295;29;20165;-35
2024/01/14 03:58:39;;;;;;;10.98;8.00;;;;;;;14.95;48.56;101456.56;4948158;29;20071;-35
2024/01/14 04:01:14;;;;;;;10.05;7.75;;;;;;;14.97;49.22;101449.31;4950749;28;20055;-35
2024/01/14 04:03:41;;;;;;;10.55;8.15;;;;;;;15.03;48.33;101453.31;4947413;28;20047;-35
2024/01/14 04:06:08;;;;;;;10.70;7.30;;;;;;;15.10;48.27;101448.38;4945852;28;20105;-35
2024/01/14 04:08:35;;;;;;;9.23;7.15;;;;;;;15.20;48.34;101444.03;4950732;29;20047;-34
2024/01/14 04:11:01;;;;;;;10.15;7.40;;;;;;;15.31;48.54;101450.19;4950665;28;20447;-34
2024/01/14 04:13:28;;;;;;;9.98;7.15;;;;;;;15.43;48.27;101448.38;4950281;28;20121;-34
2024/01/14 04:15:57;;;;;;;10.98;7.65;;;;;;;15.53;48.29;101440.50;4948610;29;20059;-34
2024/01/14 04:18:29;;;;;;;12.27;8.10;;;;;;;15.60;47.97;101436.34;4947898;29;20051;-34
2024/01/14 04:20:56;;;;;;;11.35;7.43;;;;;;;15.67;47.66;101426.03;4948799;28;20325;-35
2024/01/14 04:23:23;;;;;;;11.48;8.00;;;;;;;15.68;47.03;101428.59;4948738;29;20138;-34
2024/01/14 04:25:49;;;;;;;10.55;7.65;;;;;;;15.64;47.92;101424.44;4942668;29;20051;-34
2024/01/14 04:28:16;;;;;;;9.77;7.55;;;;;;;15.64;47.86;101415.56;4947550;29;20055;-34
2024/01/14 04:30:43;;;;;;;10.23;7.80;;;;;;;15.63;47.28;101412.03;4950734;28;20412;-35
2024/01/14 04:33:09;;;;;;;11.23;7.95;;;;;;;15.61;47.55;101406.00;4947808;28;20060;-35
2024/01/14 04:35:36;;;;;;;9.93;7.25;;;;;;;15.64;47.37;101403.06;4945275;29;20193;-36
2024/01/14 04:38:03;;;;;;;9.20;7.07;;;;;;;15.63;47.99;101408.53;4949039;28;20054;-35
2024/01/14 04:40:29;;;;;;;12.07;7.70;;;;;;;15.63;47.74;101405.84;4943317;29;20098;-33
2024/01/14 04:42:56;;;;;;;11.38;6.97;;;;;;;15.59;47.26;101402.56;4945490;29;20047;-35
2024/01/14 04:45:22;;;;;;;10.75;8.48;;;;;;;15.54;47.52;101394.94;4949543;28;20487;-35
2024/01/14 04:47:49;;;;;;;10.70;7.78;;;;;;;15.47;47.69;101392.88;4946852;28;20063;-34
2024/01/14 04:50:16;;;;;;;11.32;8.25;;;;;;;15.41;46.90;101391.56;4945073;29;20086;-35
2024/01/14 04:52:43;;;;;;;10.52;7.07;;;;;;;15.36;48.29;101392.91;4948171;29;20054;-35
2024/01/14 04:55:09;;;;;;;10.45;7.63;;;;;;;15.30;47.15;101386.22;4947514;28;20469;-34
2024/01/14 04:57:36;;;;;;;10.75;7.70;;;;;;;15.21;48.66;101390.47;4948604;28;20055;-34
2024/01/14 05:00:04;;;;;;;8.93;7.13;;;;;;;15.15;47.92;101393.63;4948032;29;20431;-34
2024/01/14 05:02:31;;;;;;;9.55;7.25;;;;;;;15.07;48.00;101390.72;4947794;29;20051;-34
2024/01/14 05:04:58;;;;;;;10.05;7.53;;;;;;;15.02;48.65;101392.91;4943948;29;20051;-35
2024/01/14 05:07:25;;;;;;;12.88;8.95;;;;;;;15.01;48.67;101380.53;4945478;28;20067;-34
2024/01/14 05:09:52;;;;;;;10.80;7.60;;;;;;;14.99;48.90;101391.31;4948472;28;20047;-35
2024/01/14 05:12:18;;;;;;;11.13;8.35;;;;;;;15.02;48.19;101383.06;4945014;28;20102;-35
2024/01/14 05:14:45;;;;;;;9.65;7.45;;;;;;;15.05;48.74;101390.84;4945561;29;20058;-35
2024/01/14 05:17:11;;;;;;;9.30;6.78;;;;;;;15.09;47.82;101383.44;4943513;29;20082;-34
2024/01/14 05:19:40;;;;;;;8.25;6.53;;;;;;;15.13;48.32;101392.91;4945289;29;20051;-34
2024/01/14 05:22:07;;;;;;;10.52;7.15;;;;;;;15.16;48.21;101390.00;4943904;28;20490;-34
2024/01/14 05:24:34;;;;;;;10.35;7.72;;;;;;;15.21;48.81;101385.13;4944067;29;20082;-34
2024/01/14 05:27:01;;;;;;;8.88;6.85;;;;;;;15.30;47.76;101372.88;4946628;28;20051;-35
2024/01/14 05:29:28;;;;;;;10.18;7.57;;;;;;;15.39;47.26;101368.59;4947314;28;20324;-34
2024/01/14 05:31:54;;;;;;;9.50;7.28;;;;;;;15.46;47.26;101368.00;4947542;29;20058;-35
2024/01/14 05:34:21;;;;;;;10.30;7.80;;;;;;;15.53;47.32;101363.00;4946999;29;20078;-34
2024/01/14 05:36:48;;;;;;;9.20;7.40;;;;;;;15.59;47.07;101361.66;4945933;29;20059;-34
2024/01/14 05:39:14;;;;;;;9.32;7.38;;;;;;;15.61;46.82;101365.91;4943724;29;20047;-35
2024/01/14 05:41:41;;;;;;;9.38;7.15;;;;;;;15.59;46.87;101359.81;4946326;28;20362;-35
2024/01/14 05:44:07;;;;;;;9.82;7.38;;;;;;;15.58;47.44;101354.63;4943141;29;20102;-34
2024/01/14 05:46:34;;;;;;;8.82;6.80;;;;;;;15.55;46.86;101353.88;4926456;29;20134;-35
2024/01/14 05:49:00;;;;;;;9.85;7.55;;;;;;;15.56;47.76;101349.41;4942108;29;20112;-33
2024/01/14 05:51:27;;;;;;;8.75;6.63;;;;;;;15.56;46.93;101336.06;4948828;29;20734;-35
2024/01/14 05:53:54;;;;;;;9.63;7.20;;;;;;;15.56;47.56;101333.38;4950495;29;20379;-35
2024/01/14 05:56:26;;;;;;;9.23;7.22;;;;;;;15.52;46.50;101321.25;4948369;29;20043;-34
2024/01/14 05:58:53;;;;;;;9.23;7.38;;;;;;;15.50;47.53;101328.53;4949115;28;20043;-34
2024/01/14 06:01:20;;;;;;;10.20;7.28;;;;;;;15.43;47.55;101330.84;4947005;29;20054;-34
2024/01/14 06:03:46;;;;;;;9.20;7.07;;;;;;;15.40;47.25;101332.94;4948816;29;20110;-33
2024/01/14 06:06:13;;;;;;;9.60;7.32;;;;;;;15.33;47.51;101331.72;4946010;28;20083;-34
2024/01/14 06:08:41;;;;;;;8.68;6.28;;;;;;;15.27;47.58;101327.72;4946653;29;20071;-34
2024/01/14 06:11:08;;;;;;;8.35;6.03;;;;;;;15.29;47.30;101328.44;4946271;29;20388;-34
2024/01/14 06:13:35;;;;;;;10.05;7.45;;;;;;;15.40;47.13;101325.75;4949623;29;20395;-34
2024/01/14 06:16:01;;;;;;;8.60;6.82;;;;;;;15.52;47.79;101321.25;4948211;29;20906;-34
2024/01/14 06:18:28;;;;;;;10.07;7.53;;;;;;;15.62;46.66;101310.63;4949173;28;20075;-34
2024/01/14 06:20:55;;;;;;;8.82;6.85;;;;;;;15.75;46.53;101312.19;4945918;29;20130;-35
2024/01/14 06:23:22;;;;;;;8.70;7.30;;;;;;;15.86;46.38;101305.13;4949838;28;20048;-34
2024/01/14 06:25:49;;;;;;;9.27;6.93;;;;;;;15.96;46.98;101306.91;4949107;29;20047;-36
2024/01/14 06:28:16;;;;;;;8.95;7.03;;;;;;;16.06;46.05;101304.28;4949888;29;20051;-35
2024/01/14 06:30:43;;;;;;;10.65;7.18;;;;;;;16.13;45.90;101305.47;4950008;29;20058;-34
2024/01/14 06:33:09;;;;;;;9.73;7.10;;;;;;;16.18;46.39;101302.41;4947661;28;20152;-36
2024/01/14 06:35:36;;;;;;;10.18;7.88;;;;;;;16.21;45.91;101294.13;4948396;29;20051;-34
2024/01/14 06:38:03;;;;;;;10.30;6.80;;;;;;;16.22;46.11;101288.63;4947293;28;20055;-34
2024/01/14 06:40:30;;;;;;;11.57;7.78;;;;;;;16.21;45.60;101281.59;4952018;28;20074;-34
2024/01/14 06:43:08;;;;;;;10.73;7.32;;;;;;;16.16;45.28;101291.84;4951294;29;20081;-35
2024/01/14 06:45:34;;;;;;;11.18;7.55;;;;;;;16.12;46.38;101285.06;4951120;29;20051;-35
2024/01/14 06:48:01;;;;;;;9.70;7.07;;;;;;;16.10;46.26;101288.84;4949742;29;20060;-34
2024/01/14 06:50:28;;;;;;;9.38;7.22;;;;;;;16.06;45.75;101287.41;4949076;29;20517;-34
2024/01/14 06:52:54;;;;;;;10.10;7.43;;;;;;;16.02;45.78;101282.31;4947060;29;20346;-34
2024/01/14 06:55:21;;;;;;;9.07;7.10;;;;;;;15.98;46.24;101278.19;4947934;29;20519;-34
2024/01/14 06:57:47;;;;;;;10.15;7.13;;;;;;;15.95;45.44;101281.13;4941788;29;20051;-35
2024/01/14 07:00:14;;;;;;;9.25;7.38;;;;;;;15.93;45.58;101274.22;4945626;29;20051;-35
2024/01/14 07:02:41;;;;;;;9.32;7.20;;;;;;;15.90;46.40;101275.31;4946577;29;20620;-35
2024/01/14 07:05:10;;;;;;;10.57;8.00;;;;;;;15.88;46.30;101273.75;4944808;29;20073;-34
2024/01/14 07:07:36;;;;;;;9.32;6.93;;;;;;;15.84;46.03;101275.84;4947023;29;20154;-36
2024/01/14 07:10:04;;;;;;;10.93;7.88;;;;;;;15.82;46.42;101284.97;4948408;29;20051;-36
2024/01/14 07:12:30;;;;;;;9.18;7.18;;;;;;;15.78;45.69;101274.53;4945823;28;20055;-35
2024/01/14 07:14:57;;;;;;;11.75;7.80;;;;;;;15.74;46.00;101278.44;4949320;28;20052;-36
2024/01/14 07:17:24;;;;;;;11.02;7.68;;;;;;;15.70;46.58;101276.16;4941287;29;20082;-36
2024/01/14 07:19:51;;;;;;;10.30;7.15;;;;;;;15.65;47.04;101273.03;4943636;29;20070;-37
2024/01/14 07:22:17;;;;;;;11.85;8.32;;;;;;;15.60;46.93;101276.03;4942456;28;20055;-35
2024/01/14 07:24:44;;;;;;;11.88;7.95;;;;;;;15.52;46.87;101275.84;4946992;29;20142;-35
2024/01/14 07:27:11;;;;;;;9.55;7.38;;;;;;;15.45;46.22;101271.97;4949584;28;20115;-35
2024/01/14 07:29:37;;;;;;;9.43;7.53;;;;;;;15.38;47.45;101281.44;4948019;28;20438;-35
2024/01/14 07:32:04;;;;;;;11.48;8.20;;;;;;;15.32;47.53;101274.78;4946172;29;20591;-35
2024/01/14 07:34:32;;;;;;;10.10;7.30;;;;;;;15.25;46.52;101281.59;4947128;28;20081;-35
2024/01/14 07:36:59;;;;;;;9.80;7.45;;;;;;;15.17;47.87;101279.56;4945330;28;20047;-35
2024/01/14 07:39:25;;;;;;;11.63;7.95;;;;;;;15.12;47.46;101270.22;4945588;29;20343;-33
2024/01/14 07:41:52;;;;;;;12.30;8.27;;;;;;;15.08;47.29;101279.47;4946675;28;20617;-34
2024/01/14 07:44:19;;;;;;;15.77;10.18;;;;;;;15.01;47.16;101273.75;4944949;29;20051;-34
2024/01/14 07:46:45;;;;;;;12.10;8.95;;;;;;;14.94;47.14;101280.56;4945667;28;20127;-34
2024/01/14 07:49:12;;;;;;;15.65;9.55;;;;;;;14.89;46.98;101278.25;4942148;29;20058;-34
2024/01/14 07:51:39;;;;;;;13.38;9.00;;;;;;;14.83;48.02;101276.06;4941273;28;20061;-34
2024/01/14 07:54:06;;;;;;;13.82;9.48;;;;;;;14.77;48.10;101271.22;4944105;29;20130;-35
2024/01/14 07:56:32;;;;;;;14.55;10.23;;;;;;;14.71;47.25;101269.91;4947080;29;20055;-34
2024/01/14 07:58:59;;;;;;;14.07;10.20;;;;;;;14.66;47.91;101272.06;4946884;29;20130;-34
2024/01/14 08:01:25;;;;;;;15.60;10.07;;;;;;;14.61;48.49;101270.75;4948150;29;21083;-35
2024/01/14 08:03:52;;;;;;;13.05;9.80;;;;;;;14.54;48.73;101273.88;4944269;28;20695;-34
2024/01/14 08:06:24;;;;;;;14.20;10.30;;;;;;;14.51;48.22;101259.94;4946262;28;20061;-34
2024/01/14 08:08:51;;;;;;;14.68;10.07;;;;;;;14.46;48.22;101260.25;4947537;28;20078;-34
2024/01/14 08:11:18;;;;;;;15.18;10.20;;;;;;;14.42;48.22;101266.81;4946076;28;20047;-37
2024/01/14 08:13:45;;;;;;;15.93;10.77;;;;;;;14.38;48.32;101269.84;4947035;29;20051;-37
2024/01/14 08:16:12;;;;;;;13.60;9.70;;;;;;;14.35;48.23;101270.91;4950763;29;20431;-35
2024/01/14 08:18:39;;;;;;;17.70;11.68;;;;;;;14.31;48.36;101256.13;4949165;29;20048;-34
2024/01/14 08:21:09;;;;;;;12.80;9.38;;;;;;;14.27;48.60;101263.53;4943556;29;20237;-36
2024/01/14 08:23:36;;;;;;;15.43;9.52;;;;;;;14.26;49.04;101264.47;4947455;29;20062;-36
2024/01/14 08:26:04;;;;;;;12.68;9.38;;;;;;;14.23;48.96;101254.06;4947611;29;20052;-35
2024/01/14 08:28:32;;;;;;;13.82;9.27;;;;;;;14.21;48.55;101261.31;4945283;28;20087;-37
2024/01/14 08:30:58;;;;;;;12.25;9.13;;;;;;;14.20;48.85;101259.63;4945025;28;20061;-34
2024/01/14 08:33:25;;;;;;;14.80;10.15;;;;;;;14.19;48.91;101257.06;4943209;28;20051;-34
2024/01/14 08:35:54;;;;;;;12.93;9.27;;;;;;;14.18;49.23;101252.72;4943361;28;20050;-34
2024/01/14 08:38:21;;;;;;;14.20;9.95;;;;;;;14.17;49.30;101251.03;4940445;29;20051;-34
2024/01/14 08:40:47;;;;;;;14.55;9.95;;;;;;;14.16;48.63;101255.50;4939811;28;20337;-36
2024/01/14 08:43:14;;;;;;;14.45;10.40;;;;;;;14.16;48.84;101260.84;4944622;29;20135;-36
2024/01/14 08:45:40;;;;;;;12.05;8.55;;;;;;;14.15;49.06;101253.81;4939515;28;20348;-34
2024/01/14 08:48:07;;;;;;;16.00;10.63;;;;;;;14.14;48.78;101246.75;4947246;29;20059;-35
2024/01/14 08:50:34;;;;;;;15.02;10.80;;;;;;;14.14;49.13;101241.44;4946055;28;20047;-34
2024/01/14 08:53:01;;;;;;;14.02;11.05;;;;;;;14.12;49.08;101240.72;4940620;29;20241;-35
2024/01/14 08:55:31;;;;;;;13.52;10.27;;;;;;;14.13;49.25;101234.41;4940630;28;20066;-34
2024/01/14 08:57:58;;;;;;;15.05;10.43;;;;;;;14.14;49.10;101237.94;4943589;28;20051;-34
2024/01/14 09:00:24;;;;;;;14.45;10.15;;;;;;;14.14;48.95;101225.44;4939499;29;20043;-34
2024/01/14 09:02:52;;;;;;;13.35;9.50;;;;;;;14.15;49.09;101232.50;4936588;28;20152;-36
2024/01/14 09:05:18;;;;;;;15.43;10.13;;;;;;;14.16;48.63;101228.84;4936457;28;20047;-36
2024/01/14 09:07:45;;;;;;;12.48;9.13;;;;;;;14.16;49.21;101222.69;4942547;28;20450;-35
2024/01/14 09:10:11;;;;;;;13.13;9.45;;;;;;;14.17;48.90;101227.88;4944256;28;20138;-35
2024/01/14 09:12:38;;;;;;;13.85;9.57;;;;;;;14.18;49.01;101229.56;4943631;29;20090;-34
2024/01/14 09:15:05;;;;;;;12.70;9.73;;;;;;;14.18;48.66;101212.72;4943423;29;20051;-34
2024/01/14 09:17:32;;;;;;;12.48;9.50;;;;;;;14.20;48.82;101218.81;4941621;29;20428;-36
2024/01/14 09:19:58;;;;;;;13.38;9.52;;;;;;;14.21;48.96;101216.00;4943492;28;20044;-33
2024/01/14 09:22:26;;;;;;;15.05;10.55;;;;;;;14.22;48.72;101216.84;4945853;29;20351;-35
2024/01/14 09:24:53;;;;;;;16.08;11.05;;;;;;;14.24;48.97;101220.25;4942071;29;20115;-39
2024/01/14 09:27:19;;;;;;;13.57;9.43;;;;;;;14.25;48.44;101222.78;4941856;29;20126;-36
2024/01/14 09:29:46;;;;;;;13.95;10.30;;;;;;;14.26;48.68;101223.63;4940756;28;20142;-36
2024/01/14 09:32:13;;;;;;;15.10;9.68;;;;;;;14.27;48.75;101217.34;4941177;29;20052;-34
2024/01/14 09:34:39;;;;;;;16.40;10.13;;;;;;;14.27;48.57;101210.22;4940241;28;20051;-33
2024/01/14 09:37:06;;;;;;;14.75;10.23;;;;;;;14.28;48.36;101214.56;4944475;29;20379;-34
2024/01/14 09:39:33;;;;;;;14.32;10.13;;;;;;;14.28;48.42;101219.06;4942123;29;20094;-34
2024/01/14 09:42:30;;;;;;;13.63;9.68;;;;;;;14.27;48.65;101223.53;4940194;29;20066;-34
2024/01/14 09:45:01;;;;;;;13.27;10.18;;;;;;;14.29;48.77;101220.75;4942267;29;20055;-35
2024/01/14 09:47:28;;;;;;;14.55;9.90;;;;;;;14.29;48.64;101215.41;4940617;29;20051;-34
2024/01/14 09:49:58;;;;;;;15.43;10.30;;;;;;;14.28;48.64;101211.91;4942054;29;20081;-34
2024/01/14 09:52:25;;;;;;;15.00;10.80;;;;;;;14.30;48.42;101203.78;4943397;28;20062;-34
2024/01/14 09:54:52;;;;;;;15.18;10.43;;;;;;;14.29;48.88;101204.75;4941777;28;20458;-34
2024/01/14 09:57:20;;;;;;;17.08;11.07;;;;;;;14.30;48.68;101206.44;4941831;29;20048;-35
2024/01/14 09:59:49;;;;;;;15.23;10.45;;;;;;;14.29;48.48;101205.59;4941152;29;20426;-35
2024/01/14 10:02:17;;;;;;;15.60;10.95;;;;;;;14.29;48.88;101213.59;4943334;29;20193;-34
2024/01/14 10:04:44;;;;;;;15.85;10.68;;;;;;;14.29;48.46;101212.75;4942337;28;20087;-34
2024/01/14 10:07:11;;;;;;;17.52;11.18;;;;;;;14.28;48.82;101213.72;4941715;29;20094;-34
2024/01/14 10:09:43;;;;;;;16.95;11.70;;;;;;;14.28;48.38;101197.72;4942256;29;20043;-43
2024/01/14 10:12:10;;;;;;;23.05;14.55;;;;;;;14.32;49.73;101200.03;4935196;29;20047;-43
2024/01/14 10:14:37;;;;;;;35.20;22.08;;;;;;;14.36;50.10;101200.63;4936187;28;20146;-41
2024/01/14 10:17:04;;;;;;;46.45;28.52;;;;;;;14.41;50.24;101197.59;4938389;29;20451;-41
2024/01/14 10:19:31;;;;;;;51.75;32.65;;;;;;;14.44;50.02;101194.69;4941388;28;20047;-43
2024/01/14 10:21:58;;;;;;;60.92;35.90;;;;;;;14.46;50.00;101192.75;4945966;28;20086;-42
2024/01/14 10:24:49;;;;;;;69.60;39.92;;;;;;;14.51;51.43;101196.78;4942080;29;20415;-43
2024/01/14 10:27:16;;;;;;;70.27;41.17;;;;;;;14.55;50.33;101182.25;4940862;28;20352;-42
2024/01/14 10:30:03;;;;;;;77.03;43.10;;;;;;;14.63;50.78;101178.94;4939081;28;20372;-42
2024/01/14 10:32:32;;;;;;;90.43;50.72;;;;;;;14.73;51.62;101173.72;4938151;29;20044;-43
2024/01/14 10:35:19;;;;;;;81.60;48.58;;;;;;;14.85;50.67;101175.41;4938956;29;20056;-43
2024/01/14 10:37:45;;;;;;;81.28;48.40;;;;;;;15.00;51.08;101166.13;4929912;28;20057;-43
2024/01/14 10:40:12;;;;;;;73.25;44.60;;;;;;;15.17;50.37;101162.06;4940779;28;20047;-43
2024/01/14 10:42:40;;;;;;;75.75;44.30;;;;;;;15.35;50.02;101164.19;4941848;28;20054;-43
2024/01/14 10:45:08;;;;;;;76.15;45.05;;;;;;;15.52;49.77;101160.97;4941351;28;20513;-43
2024/01/14 10:47:36;;;;;;;74.45;42.35;;;;;;;15.68;50.06;101152.53;4940398;29;20065;-37
2024/01/14 10:50:05;;;;;;;71.38;41.63;;;;;;;15.83;49.08;101153.03;4943047;28;20109;-37
2024/01/14 10:52:36;;;;;;;62.28;37.38;;;;;;;15.97;49.71;101136.66;4939166;29;20050;-41
2024/01/14 10:55:55;;;;;;;63.30;38.22;;;;;;;16.13;48.54;101134.34;4938548;29;20066;-41
2024/01/14 10:58:27;;;;;;;62.92;38.45;;;;;;;16.28;48.06;101126.78;4924454;29;20162;-41
2024/01/14 11:01:01;;;;;;;57.53;34.35;;;;;;;16.41;48.67;101129.22;4936218;29;20401;-37
2024/01/14 11:03:29;;;;;;;59.33;36.03;;;;;;;16.52;47.80;101121.94;4945334;29;20055;-39
2024/01/14 11:05:57;;;;;;;55.33;33.60;;;;;;;16.62;48.26;101113.09;4940060;28;20385;-42
2024/01/14 11:08:24;;;;;;;54.53;33.70;;;;;;;16.72;47.64;101111.25;4934382;29;20078;-40
2024/01/14 11:10:53;;;;;;;49.40;32.22;;;;;;;16.82;47.74;101106.81;4939413;28;20055;-41
2024/01/14 11:13:33;;;;;;;51.60;32.60;;;;;;;16.90;47.91;101096.25;4940891;28;20420;-42
2024/01/14 11:16:23;;;;;;;53.42;32.65;;;;;;;16.99;47.05;101092.72;4942448;28;20161;-42